AirNav   Air Wisconsin Up To $57,000 Bonus
 
 502 users online  

NY40 Gentzke Aeronautical Park Airport
Holland, New York, USA

GOING TO HOLLAND?


FAA INFORMATION EFFECTIVE 15 AUGUST 2019

Location

FAA Identifier: NY40
Lat/Long: 42-36-38.2200N 078-35-44.0860W
42-36.637000N 078-35.734767W
42.6106167,-78.5955794
(estimated)
Elevation: 1750 ft. / 533 m (estimated)
Variation: 10W (1985)
From city: 4 miles SW of HOLLAND, NY
Time zone: UTC -4 (UTC -5 during Standard Time)
Zip code: 14080

Airport Operations

Airport use: Private use. Permission required prior to landing
Activation date: 11/1988
Control tower: no
ARTCC: CLEVELAND CENTER
FSS: BUFFALO FLIGHT SERVICE STATION
Attendance: UNATNDD
Wind indicator: yes
Segmented circle: no

Nearby radio navigation aids

VOR radial/distance  VOR name  Freq  Var
BUFr181/19.2BUFFALO VOR/DME116.4008W
JHWr050/34.4JAMESTOWN VOR/DME114.7007W

Airport Services

Runway Information

Runway E/W

Dimensions: 2000 x 100 ft. / 610 x 30 m
Surface: turf
RUNWAY E  RUNWAY W
Traffic pattern: leftleft
Obstructions: pline50 ft. trees, 500 ft. from runway

Airport Ownership and Management from official FAA records

Ownership: Privately-owned
Owner: GLENN D. GENTZKE
10661 CRUMP RD
HOLLAND, NY 14080
Phone 716 592-2023
Manager: GLENN D. GENTZKE
10661 CRUMP RD
HOLLAND, NY 14080
Phone 716 592-2023

Airport Operational Statistics

Aircraft based on the field: 3
Single engine airplanes: 3
    

Additional Remarks

FOR CD CTC CLEVELAND ARTCC AT 440-774-0490.

Instrument Procedures

There are no published instrument procedures at NY40.

Some nearby airports with instrument procedures:

9G0 - Buffalo Airfield (16 nm N)
KBUF - Buffalo Niagara International Airport (21 nm N)
KOLE - Cattaraugus County-Olean Airport (24 nm SE)
9G3 - Akron Airport/Jesson Field (25 nm N)
KDKK - Chautauqua County/Dunkirk Airport (31 nm W)
 
Loc | Ops | Rwys | IFR | FBO | Links
Com | Nav | Svcs | Stats | Notes
Area around NY40 (Gentzke Aeronautical Park Airport)
 
Road maps at: MapQuest Bing Google
 
Aerial photo
No photo
 
Sectional chart

 
Airport distance calculator
Flying to Gentzke Aeronautical Park Airport? Find the distance to fly.

From to NY40

Sunrise and sunset
Times for 19-Aug-2019
 Local
(UTC-4)
 Zulu
(UTC)
Morning civil twilight05:5609:56
Sunrise06:2610:26
Sunset20:1000:10
Evening civil twilight20:4000:40

Current date and time
Zulu (UTC)  19-Aug-2019 04:44:44
Local (UTC-4)  19-Aug-2019 00:44:44
 
METAR
KBUF 
20nm N 
190354Z 19006KT 10SM BKN170 23/18 A2988 RMK AO2 SLP113 T02330183 $
KOLE 
25nm SE 
190435Z AUTO 19006KT 10SM CLR 17/17 A3000 RMK AO2
KDKK 
31nm W 
190353Z AUTO 19015G24KT 10SM CLR 24/16 A2988 RMK AO2 SLP114 T02390156 $
KGVQ 
32nm NE 
190356Z AUTO 22005KT 10SM CLR 23/19 A2990 RMK AO2 SLP117 T02280189 PNO $
CWPC 
33nm NW 
190400Z AUTO 21014KT 24/19 RMK AO1 PK WND 21019/0327 SLP109 T02420191 56003
KIAG 
34nm NW 
190353Z AUTO 20009KT 10SM CLR 23/18 A2986 RMK AO2 LTG DSNT W SLP106 T02330178
KDSV 
39nm E 
190354Z AUTO 14007KT 10SM CLR 22/18 A2992 RMK AO2 SLP137 T02220183
TAF
KBUF 
20nm N 
190258Z 1903/1924 19007KT P6SM SCT120 BKN200 FM190600 21011KT 6SM -SHRA BKN060 TEMPO 1906/1908 3SM TSRA OVC035CB FM190800 23012KT P6SM SCT050 BKN150 FM191500 25010KT P6SM BKN035 FM192200 25009KT P6SM SCT090
NOTAMs
Click for the latest NOTAMs
NOTAMs are issued by the DoD/FAA and will open in a separate window not controlled by AirNav.

 

 
 

Would you like to see your business listed on this page?

 If your business provides an interesting product or service to pilots, flight crews, aircraft, or users of the Gentzke Aeronautical Park Airport, you should consider listing it here.  To start the listing process, click on the button below
 
Add a business
 

Other Pages about Gentzke Aeronautical Park Airport

Update a link
 
Copyright © AirNav, LLC. All rights reserved. Privacy Policy  Contact